sensor_id;sensor_type;location;lat;lon;timestamp;P1;durP1;ratioP1;P2;durP2;ratioP2
77880;SDS011;67077;50.298;18.996;2023-06-22T00:00:57;14.90;;;9.90;;
77880;SDS011;67077;50.298;18.996;2023-06-22T00:03:32;16.50;;;9.40;;
77880;SDS011;67077;50.298;18.996;2023-06-22T00:05:58;14.20;;;8.70;;
77880;SDS011;67077;50.298;18.996;2023-06-22T00:08:25;18.00;;;9.50;;
77880;SDS011;67077;50.298;18.996;2023-06-22T00:10:51;15.20;;;9.50;;
77880;SDS011;67077;50.298;18.996;2023-06-22T00:13:18;16.20;;;9.80;;
77880;SDS011;67077;50.298;18.996;2023-06-22T00:15:45;19.80;;;9.70;;
77880;SDS011;67077;50.298;18.996;2023-06-22T00:18:11;16.40;;;9.40;;
77880;SDS011;67077;50.298;18.996;2023-06-22T00:20:39;16.40;;;8.80;;
77880;SDS011;67077;50.298;18.996;2023-06-22T00:23:06;15.10;;;9.00;;
77880;SDS011;67077;50.298;18.996;2023-06-22T00:25:37;16.40;;;9.90;;
77880;SDS011;67077;50.298;18.996;2023-06-22T00:30:34;15.70;;;9.30;;
77880;SDS011;67077;50.298;18.996;2023-06-22T00:33:01;16.50;;;9.60;;
77880;SDS011;67077;50.298;18.996;2023-06-22T00:35:28;19.50;;;9.40;;
77880;SDS011;67077;50.298;18.996;2023-06-22T00:37:58;16.40;;;9.50;;
77880;SDS011;67077;50.298;18.996;2023-06-22T00:40:32;16.80;;;9.70;;
77880;SDS011;67077;50.298;18.996;2023-06-22T00:42:59;14.20;;;9.60;;
77880;SDS011;67077;50.298;18.996;2023-06-22T00:45:26;19.40;;;9.50;;
77880;SDS011;67077;50.298;18.996;2023-06-22T00:47:53;14.60;;;9.20;;
77880;SDS011;67077;50.298;18.996;2023-06-22T00:50:23;15.30;;;9.40;;
77880;SDS011;67077;50.298;18.996;2023-06-22T00:52:53;13.70;;;9.30;;
77880;SDS011;67077;50.298;18.996;2023-06-22T00:55:25;19.40;;;9.90;;
77880;SDS011;67077;50.298;18.996;2023-06-22T00:57:52;17.70;;;9.90;;
77880;SDS011;67077;50.298;18.996;2023-06-22T01:00:23;16.80;;;9.50;;
77880;SDS011;67077;50.298;18.996;2023-06-22T01:02:51;21.30;;;10.20;;
77880;SDS011;67077;50.298;18.996;2023-06-22T01:05:22;18.50;;;9.40;;
77880;SDS011;67077;50.298;18.996;2023-06-22T01:13:28;16.20;;;8.80;;
77880;SDS011;67077;50.298;18.996;2023-06-22T01:16:03;19.90;;;9.60;;
77880;SDS011;67077;50.298;18.996;2023-06-22T01:18:35;15.50;;;9.60;;
77880;SDS011;67077;50.298;18.996;2023-06-22T01:21:04;18.20;;;9.50;;
77880;SDS011;67077;50.298;18.996;2023-06-22T01:26:06;14.80;;;8.50;;
77880;SDS011;67077;50.298;18.996;2023-06-22T01:28:49;19.00;;;8.70;;
77880;SDS011;67077;50.298;18.996;2023-06-22T01:31:23;20.00;;;9.40;;
77880;SDS011;67077;50.298;18.996;2023-06-22T01:33:53;18.00;;;9.50;;
77880;SDS011;67077;50.298;18.996;2023-06-22T01:36:22;20.30;;;9.70;;
77880;SDS011;67077;50.298;18.996;2023-06-22T01:38:50;19.10;;;9.70;;
77880;SDS011;67077;50.298;18.996;2023-06-22T01:41:21;18.90;;;9.30;;
77880;SDS011;67077;50.298;18.996;2023-06-22T01:43:51;17.90;;;9.00;;
77880;SDS011;67077;50.298;18.996;2023-06-22T01:46:19;16.50;;;9.00;;
77880;SDS011;67077;50.298;18.996;2023-06-22T01:48:47;14.90;;;8.80;;
77880;SDS011;67077;50.298;18.996;2023-06-22T01:51:14;20.90;;;9.30;;
77880;SDS011;67077;50.298;18.996;2023-06-22T01:53:41;17.30;;;9.10;;
77880;SDS011;67077;50.298;18.996;2023-06-22T01:56:08;16.50;;;9.00;;
77880;SDS011;67077;50.298;18.996;2023-06-22T01:58:36;18.60;;;8.90;;
77880;SDS011;67077;50.298;18.996;2023-06-22T02:01:11;17.60;;;8.70;;
77880;SDS011;67077;50.298;18.996;2023-06-22T02:03:41;14.30;;;8.30;;
77880;SDS011;67077;50.298;18.996;2023-06-22T02:06:27;16.90;;;8.70;;
77880;SDS011;67077;50.298;18.996;2023-06-22T02:09:02;15.40;;;8.40;;
77880;SDS011;67077;50.298;18.996;2023-06-22T02:11:32;16.60;;;9.00;;
77880;SDS011;67077;50.298;18.996;2023-06-22T02:14:01;17.10;;;8.50;;
77880;SDS011;67077;50.298;18.996;2023-06-22T02:16:28;18.20;;;8.60;;
77880;SDS011;67077;50.298;18.996;2023-06-22T02:18:58;17.60;;;8.00;;
77880;SDS011;67077;50.298;18.996;2023-06-22T02:21:29;18.90;;;8.40;;
77880;SDS011;67077;50.298;18.996;2023-06-22T02:23:58;16.40;;;8.70;;
77880;SDS011;67077;50.298;18.996;2023-06-22T02:26:25;14.30;;;8.50;;
77880;SDS011;67077;50.298;18.996;2023-06-22T02:28:53;19.80;;;8.10;;
77880;SDS011;67077;50.298;18.996;2023-06-22T02:31:19;14.40;;;8.10;;
77880;SDS011;67077;50.298;18.996;2023-06-22T02:33:46;19.70;;;8.50;;
77880;SDS011;67077;50.298;18.996;2023-06-22T02:36:14;16.80;;;8.60;;
77880;SDS011;67077;50.298;18.996;2023-06-22T02:38:41;20.20;;;9.00;;
77880;SDS011;67077;50.298;18.996;2023-06-22T02:41:17;18.40;;;8.40;;
77880;SDS011;67077;50.298;18.996;2023-06-22T02:43:46;16.60;;;8.30;;
77880;SDS011;67077;50.298;18.996;2023-06-22T02:46:13;19.10;;;8.40;;
77880;SDS011;67077;50.298;18.996;2023-06-22T02:48:40;21.50;;;9.60;;
77880;SDS011;67077;50.298;18.996;2023-06-22T02:51:07;18.40;;;9.40;;
77880;SDS011;67077;50.298;18.996;2023-06-22T02:53:34;19.80;;;9.20;;
77880;SDS011;67077;50.298;18.996;2023-06-22T02:56:01;18.80;;;9.40;;
77880;SDS011;67077;50.298;18.996;2023-06-22T02:58:31;21.70;;;9.30;;
77880;SDS011;67077;50.298;18.996;2023-06-22T03:01:05;19.60;;;8.50;;
77880;SDS011;67077;50.298;18.996;2023-06-22T03:03:32;19.10;;;8.50;;
77880;SDS011;67077;50.298;18.996;2023-06-22T03:05:58;15.50;;;7.90;;
77880;SDS011;67077;50.298;18.996;2023-06-22T03:08:27;18.40;;;8.60;;
77880;SDS011;67077;50.298;18.996;2023-06-22T03:10:55;18.10;;;8.70;;
77880;SDS011;67077;50.298;18.996;2023-06-22T03:13:21;18.00;;;8.40;;
77880;SDS011;67077;50.298;18.996;2023-06-22T03:15:49;19.30;;;8.30;;
77880;SDS011;67077;50.298;18.996;2023-06-22T03:18:15;15.60;;;7.80;;
77880;SDS011;67077;50.298;18.996;2023-06-22T03:20:42;15.10;;;7.90;;
77880;SDS011;67077;50.298;18.996;2023-06-22T03:23:09;15.70;;;8.20;;
77880;SDS011;67077;50.298;18.996;2023-06-22T03:25:35;19.00;;;8.10;;
77880;SDS011;67077;50.298;18.996;2023-06-22T03:28:02;17.40;;;8.20;;
77880;SDS011;67077;50.298;18.996;2023-06-22T03:30:28;17.00;;;8.20;;
77880;SDS011;67077;50.298;18.996;2023-06-22T03:32:55;15.30;;;7.90;;
77880;SDS011;67077;50.298;18.996;2023-06-22T03:35:21;19.50;;;8.30;;
77880;SDS011;67077;50.298;18.996;2023-06-22T03:37:49;17.80;;;8.70;;
77880;SDS011;67077;50.298;18.996;2023-06-22T03:40:16;16.70;;;8.70;;
77880;SDS011;67077;50.298;18.996;2023-06-22T03:42:42;20.50;;;8.40;;
77880;SDS011;67077;50.298;18.996;2023-06-22T03:45:09;14.00;;;8.40;;
77880;SDS011;67077;50.298;18.996;2023-06-22T03:47:36;20.20;;;7.90;;
77880;SDS011;67077;50.298;18.996;2023-06-22T03:50:02;15.90;;;7.90;;
77880;SDS011;67077;50.298;18.996;2023-06-22T03:52:32;22.00;;;8.40;;
77880;SDS011;67077;50.298;18.996;2023-06-22T03:54:58;20.40;;;8.40;;
77880;SDS011;67077;50.298;18.996;2023-06-22T03:57:25;18.40;;;8.10;;
77880;SDS011;67077;50.298;18.996;2023-06-22T03:59:54;19.00;;;8.20;;
77880;SDS011;67077;50.298;18.996;2023-06-22T04:02:22;15.60;;;7.70;;
77880;SDS011;67077;50.298;18.996;2023-06-22T04:04:49;20.20;;;9.00;;
77880;SDS011;67077;50.298;18.996;2023-06-22T04:07:16;16.00;;;9.60;;
77880;SDS011;67077;50.298;18.996;2023-06-22T04:09:44;20.40;;;10.50;;
77880;SDS011;67077;50.298;18.996;2023-06-22T04:12:10;19.10;;;10.90;;
77880;SDS011;67077;50.298;18.996;2023-06-22T04:14:37;24.80;;;13.80;;
77880;SDS011;67077;50.298;18.996;2023-06-22T04:17:04;21.90;;;13.80;;
77880;SDS011;67077;50.298;18.996;2023-06-22T04:19:30;26.10;;;14.10;;
77880;SDS011;67077;50.298;18.996;2023-06-22T04:21:57;26.80;;;16.40;;
77880;SDS011;67077;50.298;18.996;2023-06-22T04:24:23;27.20;;;15.90;;
77880;SDS011;67077;50.298;18.996;2023-06-22T04:26:50;22.70;;;15.70;;
77880;SDS011;67077;50.298;18.996;2023-06-22T04:29:20;26.40;;;15.90;;
77880;SDS011;67077;50.298;18.996;2023-06-22T04:31:54;25.30;;;15.90;;
77880;SDS011;67077;50.298;18.996;2023-06-22T04:34:22;27.10;;;18.30;;
77880;SDS011;67077;50.298;18.996;2023-06-22T04:36:49;32.30;;;19.70;;
77880;SDS011;67077;50.298;18.996;2023-06-22T04:39:16;29.60;;;19.90;;
77880;SDS011;67077;50.298;18.996;2023-06-22T04:41:42;28.50;;;20.60;;
77880;SDS011;67077;50.298;18.996;2023-06-22T04:44:09;27.20;;;19.80;;
77880;SDS011;67077;50.298;18.996;2023-06-22T04:46:40;31.70;;;20.20;;
77880;SDS011;67077;50.298;18.996;2023-06-22T04:49:07;33.30;;;19.70;;
77880;SDS011;67077;50.298;18.996;2023-06-22T04:51:39;29.10;;;19.70;;
77880;SDS011;67077;50.298;18.996;2023-06-22T04:54:07;27.10;;;20.00;;
77880;SDS011;67077;50.298;18.996;2023-06-22T04:56:35;25.70;;;19.80;;
77880;SDS011;67077;50.298;18.996;2023-06-22T04:59:01;29.00;;;21.60;;
77880;SDS011;67077;50.298;18.996;2023-06-22T05:01:29;29.90;;;21.30;;
77880;SDS011;67077;50.298;18.996;2023-06-22T05:06:28;30.80;;;22.10;;
77880;SDS011;67077;50.298;18.996;2023-06-22T05:08:56;28.10;;;20.90;;
77880;SDS011;67077;50.298;18.996;2023-06-22T05:11:26;29.70;;;22.20;;
77880;SDS011;67077;50.298;18.996;2023-06-22T05:13:54;30.50;;;21.70;;
77880;SDS011;67077;50.298;18.996;2023-06-22T05:16:21;31.20;;;22.00;;
77880;SDS011;67077;50.298;18.996;2023-06-22T05:18:53;29.90;;;22.60;;
77880;SDS011;67077;50.298;18.996;2023-06-22T05:21:24;31.70;;;22.90;;
77880;SDS011;67077;50.298;18.996;2023-06-22T05:23:53;28.80;;;21.70;;
77880;SDS011;67077;50.298;18.996;2023-06-22T05:26:20;29.80;;;23.70;;
77880;SDS011;67077;50.298;18.996;2023-06-22T05:28:48;28.10;;;23.10;;
77880;SDS011;67077;50.298;18.996;2023-06-22T05:31:15;31.60;;;23.40;;
77880;SDS011;67077;50.298;18.996;2023-06-22T05:33:43;30.50;;;23.50;;
77880;SDS011;67077;50.298;18.996;2023-06-22T05:36:10;31.00;;;24.20;;
77880;SDS011;67077;50.298;18.996;2023-06-22T05:38:41;32.00;;;24.70;;
77880;SDS011;67077;50.298;18.996;2023-06-22T05:41:14;33.60;;;25.30;;
77880;SDS011;67077;50.298;18.996;2023-06-22T05:43:43;34.40;;;25.50;;
77880;SDS011;67077;50.298;18.996;2023-06-22T05:46:13;31.90;;;25.40;;
77880;SDS011;67077;50.298;18.996;2023-06-22T05:51:42;32.30;;;25.30;;
77880;SDS011;67077;50.298;18.996;2023-06-22T05:54:12;32.40;;;25.10;;
77880;SDS011;67077;50.298;18.996;2023-06-22T05:56:42;30.00;;;23.70;;
77880;SDS011;67077;50.298;18.996;2023-06-22T05:59:11;31.60;;;24.10;;
77880;SDS011;67077;50.298;18.996;2023-06-22T06:01:38;33.40;;;24.90;;
77880;SDS011;67077;50.298;18.996;2023-06-22T06:04:06;32.50;;;24.50;;
77880;SDS011;67077;50.298;18.996;2023-06-22T06:06:36;27.10;;;22.10;;
77880;SDS011;67077;50.298;18.996;2023-06-22T06:09:04;27.80;;;22.60;;
77880;SDS011;67077;50.298;18.996;2023-06-22T06:11:30;27.10;;;22.60;;
77880;SDS011;67077;50.298;18.996;2023-06-22T06:13:57;29.40;;;23.50;;
77880;SDS011;67077;50.298;18.996;2023-06-22T06:16:24;28.40;;;23.10;;
77880;SDS011;67077;50.298;18.996;2023-06-22T06:18:50;26.90;;;22.60;;
77880;SDS011;67077;50.298;18.996;2023-06-22T06:21:19;30.20;;;24.00;;
77880;SDS011;67077;50.298;18.996;2023-06-22T06:23:46;31.20;;;24.20;;
77880;SDS011;67077;50.298;18.996;2023-06-22T06:26:13;30.20;;;22.50;;
77880;SDS011;67077;50.298;18.996;2023-06-22T06:28:43;27.40;;;22.50;;
77880;SDS011;67077;50.298;18.996;2023-06-22T06:31:09;27.30;;;21.90;;
77880;SDS011;67077;50.298;18.996;2023-06-22T06:33:38;24.50;;;20.50;;
77880;SDS011;67077;50.298;18.996;2023-06-22T06:36:04;27.30;;;20.60;;
77880;SDS011;67077;50.298;18.996;2023-06-22T06:38:31;26.70;;;19.00;;
77880;SDS011;67077;50.298;18.996;2023-06-22T06:40:58;24.90;;;18.40;;
77880;SDS011;67077;50.298;18.996;2023-06-22T06:43:25;24.70;;;18.50;;
77880;SDS011;67077;50.298;18.996;2023-06-22T06:45:52;26.20;;;18.00;;
77880;SDS011;67077;50.298;18.996;2023-06-22T06:48:19;20.80;;;16.70;;
77880;SDS011;67077;50.298;18.996;2023-06-22T06:50:45;24.80;;;16.80;;
77880;SDS011;67077;50.298;18.996;2023-06-22T06:53:13;21.10;;;15.20;;
77880;SDS011;67077;50.298;18.996;2023-06-22T06:55:39;20.50;;;14.60;;
77880;SDS011;67077;50.298;18.996;2023-06-22T06:58:06;20.30;;;15.00;;
77880;SDS011;67077;50.298;18.996;2023-06-22T07:00:34;17.50;;;14.60;;
77880;SDS011;67077;50.298;18.996;2023-06-22T07:03:02;18.60;;;14.20;;
77880;SDS011;67077;50.298;18.996;2023-06-22T07:05:28;19.60;;;14.40;;
77880;SDS011;67077;50.298;18.996;2023-06-22T07:07:55;20.30;;;13.70;;
77880;SDS011;67077;50.298;18.996;2023-06-22T07:10:22;20.60;;;13.20;;
77880;SDS011;67077;50.298;18.996;2023-06-22T07:12:48;17.30;;;13.20;;
77880;SDS011;67077;50.298;18.996;2023-06-22T07:15:15;17.80;;;13.70;;
77880;SDS011;67077;50.298;18.996;2023-06-22T07:17:43;16.60;;;13.40;;
77880;SDS011;67077;50.298;18.996;2023-06-22T07:20:10;20.90;;;14.40;;
77880;SDS011;67077;50.298;18.996;2023-06-22T07:22:41;19.70;;;14.90;;
77880;SDS011;67077;50.298;18.996;2023-06-22T07:25:09;20.60;;;14.50;;
77880;SDS011;67077;50.298;18.996;2023-06-22T07:27:36;18.20;;;13.40;;
77880;SDS011;67077;50.298;18.996;2023-06-22T07:30:06;19.60;;;14.00;;
77880;SDS011;67077;50.298;18.996;2023-06-22T07:32:33;17.00;;;13.10;;
77880;SDS011;67077;50.298;18.996;2023-06-22T07:35:00;18.60;;;13.50;;
77880;SDS011;67077;50.298;18.996;2023-06-22T07:37:28;17.20;;;13.30;;
77880;SDS011;67077;50.298;18.996;2023-06-22T07:39:55;15.70;;;13.00;;
77880;SDS011;67077;50.298;18.996;2023-06-22T07:42:25;17.00;;;13.10;;
77880;SDS011;67077;50.298;18.996;2023-06-22T07:44:53;19.10;;;13.30;;
77880;SDS011;67077;50.298;18.996;2023-06-22T07:47:20;17.20;;;12.90;;
77880;SDS011;67077;50.298;18.996;2023-06-22T07:49:51;18.30;;;12.50;;
77880;SDS011;67077;50.298;18.996;2023-06-22T07:52:18;13.40;;;11.60;;
77880;SDS011;67077;50.298;18.996;2023-06-22T07:54:44;17.50;;;12.50;;
77880;SDS011;67077;50.298;18.996;2023-06-22T07:57:11;14.90;;;11.90;;
77880;SDS011;67077;50.298;18.996;2023-06-22T07:59:38;18.80;;;12.20;;
77880;SDS011;67077;50.298;18.996;2023-06-22T08:02:05;15.70;;;12.20;;
77880;SDS011;67077;50.298;18.996;2023-06-22T08:04:32;15.50;;;11.30;;
77880;SDS011;67077;50.298;18.996;2023-06-22T08:07:01;13.50;;;10.70;;
77880;SDS011;67077;50.298;18.996;2023-06-22T08:09:31;14.10;;;10.90;;
77880;SDS011;67077;50.298;18.996;2023-06-22T08:11:59;14.40;;;11.00;;
77880;SDS011;67077;50.298;18.996;2023-06-22T08:14:26;15.30;;;10.30;;
77880;SDS011;67077;50.298;18.996;2023-06-22T08:16:54;12.10;;;9.90;;
77880;SDS011;67077;50.298;18.996;2023-06-22T08:19:27;10.50;;;9.10;;
77880;SDS011;67077;50.298;18.996;2023-06-22T08:22:11;12.50;;;9.10;;
77880;SDS011;67077;50.298;18.996;2023-06-22T08:24:48;12.30;;;9.10;;
77880;SDS011;67077;50.298;18.996;2023-06-22T08:27:18;10.90;;;9.20;;
77880;SDS011;67077;50.298;18.996;2023-06-22T08:29:47;12.90;;;9.60;;
77880;SDS011;67077;50.298;18.996;2023-06-22T08:32:14;14.90;;;9.00;;
77880;SDS011;67077;50.298;18.996;2023-06-22T08:34:40;13.90;;;9.40;;
77880;SDS011;67077;50.298;18.996;2023-06-22T08:37:12;13.90;;;8.50;;
77880;SDS011;67077;50.298;18.996;2023-06-22T08:39:39;12.20;;;9.00;;
77880;SDS011;67077;50.298;18.996;2023-06-22T08:42:06;13.60;;;9.40;;
77880;SDS011;67077;50.298;18.996;2023-06-22T08:44:34;13.00;;;9.40;;
77880;SDS011;67077;50.298;18.996;2023-06-22T08:47:01;9.70;;;8.60;;
77880;SDS011;67077;50.298;18.996;2023-06-22T08:49:30;10.50;;;9.40;;
77880;SDS011;67077;50.298;18.996;2023-06-22T08:51:57;14.10;;;9.20;;
77880;SDS011;67077;50.298;18.996;2023-06-22T08:54:26;12.20;;;8.30;;
77880;SDS011;67077;50.298;18.996;2023-06-22T08:56:53;11.60;;;9.30;;
77880;SDS011;67077;50.298;18.996;2023-06-22T08:59:20;10.90;;;8.80;;
77880;SDS011;67077;50.298;18.996;2023-06-22T09:01:47;11.40;;;8.90;;
77880;SDS011;67077;50.298;18.996;2023-06-22T09:04:15;11.00;;;9.20;;
77880;SDS011;67077;50.298;18.996;2023-06-22T09:06:42;10.60;;;9.30;;
77880;SDS011;67077;50.298;18.996;2023-06-22T09:09:13;13.00;;;10.10;;
77880;SDS011;67077;50.298;18.996;2023-06-22T09:11:44;11.70;;;9.70;;
77880;SDS011;67077;50.298;18.996;2023-06-22T09:14:13;12.20;;;9.60;;
77880;SDS011;67077;50.298;18.996;2023-06-22T09:16:51;11.00;;;9.80;;
77880;SDS011;67077;50.298;18.996;2023-06-22T09:19:19;16.00;;;9.70;;
77880;SDS011;67077;50.298;18.996;2023-06-22T09:21:46;10.90;;;9.30;;
77880;SDS011;67077;50.298;18.996;2023-06-22T09:24:14;11.20;;;9.20;;
77880;SDS011;67077;50.298;18.996;2023-06-22T09:26:44;11.30;;;9.60;;
77880;SDS011;67077;50.298;18.996;2023-06-22T09:29:11;12.60;;;9.40;;
77880;SDS011;67077;50.298;18.996;2023-06-22T09:31:38;12.40;;;9.50;;
77880;SDS011;67077;50.298;18.996;2023-06-22T09:34:05;12.50;;;9.30;;
77880;SDS011;67077;50.298;18.996;2023-06-22T09:36:32;13.60;;;9.60;;
77880;SDS011;67077;50.298;18.996;2023-06-22T09:38:59;13.60;;;9.40;;
77880;SDS011;67077;50.298;18.996;2023-06-22T09:41:33;13.20;;;9.50;;
77880;SDS011;67077;50.298;18.996;2023-06-22T09:46:50;14.10;;;9.20;;
77880;SDS011;67077;50.298;18.996;2023-06-22T09:50:01;10.10;;;9.00;;
77880;SDS011;67077;50.298;18.996;2023-06-22T09:52:50;12.80;;;9.30;;
77880;SDS011;67077;50.298;18.996;2023-06-22T09:55:48;11.60;;;9.30;;
77880;SDS011;67077;50.298;18.996;2023-06-22T09:58:15;11.50;;;9.70;;
77880;SDS011;67077;50.298;18.996;2023-06-22T10:00:43;11.20;;;9.10;;
77880;SDS011;67077;50.298;18.996;2023-06-22T10:03:11;10.80;;;9.60;;
77880;SDS011;67077;50.298;18.996;2023-06-22T10:05:39;12.00;;;8.80;;
77880;SDS011;67077;50.298;18.996;2023-06-22T10:08:13;12.40;;;9.10;;
77880;SDS011;67077;50.298;18.996;2023-06-22T10:10:44;15.50;;;10.20;;
77880;SDS011;67077;50.298;18.996;2023-06-22T10:13:12;10.70;;;9.40;;
77880;SDS011;67077;50.298;18.996;2023-06-22T10:15:39;14.00;;;9.40;;
77880;SDS011;67077;50.298;18.996;2023-06-22T10:18:08;13.90;;;8.70;;
77880;SDS011;67077;50.298;18.996;2023-06-22T10:20:34;14.70;;;9.60;;
77880;SDS011;67077;50.298;18.996;2023-06-22T10:23:01;15.60;;;8.90;;
77880;SDS011;67077;50.298;18.996;2023-06-22T10:25:30;10.30;;;8.20;;
77880;SDS011;67077;50.298;18.996;2023-06-22T10:27:58;9.70;;;8.70;;
77880;SDS011;67077;50.298;18.996;2023-06-22T10:30:25;12.00;;;9.60;;
77880;SDS011;67077;50.298;18.996;2023-06-22T10:32:55;11.60;;;9.20;;
77880;SDS011;67077;50.298;18.996;2023-06-22T10:35:21;11.60;;;8.80;;
77880;SDS011;67077;50.298;18.996;2023-06-22T10:37:48;9.80;;;8.60;;
77880;SDS011;67077;50.298;18.996;2023-06-22T10:40:15;11.10;;;8.70;;
77880;SDS011;67077;50.298;18.996;2023-06-22T10:42:43;10.60;;;9.00;;
77880;SDS011;67077;50.298;18.996;2023-06-22T10:45:10;11.50;;;9.40;;
77880;SDS011;67077;50.298;18.996;2023-06-22T10:47:37;11.30;;;8.70;;
77880;SDS011;67077;50.298;18.996;2023-06-22T10:50:04;9.60;;;8.40;;
77880;SDS011;67077;50.298;18.996;2023-06-22T10:52:31;12.00;;;8.80;;
77880;SDS011;67077;50.298;18.996;2023-06-22T10:55:00;13.30;;;8.80;;
77880;SDS011;67077;50.298;18.996;2023-06-22T10:57:26;12.00;;;8.40;;
77880;SDS011;67077;50.298;18.996;2023-06-22T10:59:54;9.50;;;8.50;;
77880;SDS011;67077;50.298;18.996;2023-06-22T11:02:20;11.00;;;8.50;;
77880;SDS011;67077;50.298;18.996;2023-06-22T11:04:47;12.10;;;8.90;;
77880;SDS011;67077;50.298;18.996;2023-06-22T11:07:15;11.70;;;8.30;;
77880;SDS011;67077;50.298;18.996;2023-06-22T11:09:43;10.80;;;8.90;;
77880;SDS011;67077;50.298;18.996;2023-06-22T11:12:10;11.40;;;8.40;;
77880;SDS011;67077;50.298;18.996;2023-06-22T11:14:36;10.50;;;8.80;;
77880;SDS011;67077;50.298;18.996;2023-06-22T11:17:05;10.70;;;8.20;;
77880;SDS011;67077;50.298;18.996;2023-06-22T11:19:32;14.10;;;9.10;;
77880;SDS011;67077;50.298;18.996;2023-06-22T11:21:59;12.90;;;8.80;;
77880;SDS011;67077;50.298;18.996;2023-06-22T11:24:26;9.90;;;8.80;;
77880;SDS011;67077;50.298;18.996;2023-06-22T11:26:52;10.40;;;8.80;;
77880;SDS011;67077;50.298;18.996;2023-06-22T11:29:19;15.20;;;9.10;;
77880;SDS011;67077;50.298;18.996;2023-06-22T11:31:46;9.90;;;8.50;;
77880;SDS011;67077;50.298;18.996;2023-06-22T11:34:15;10.90;;;8.50;;
77880;SDS011;67077;50.298;18.996;2023-06-22T11:36:45;12.20;;;9.20;;
77880;SDS011;67077;50.298;18.996;2023-06-22T11:39:16;12.10;;;9.00;;
77880;SDS011;67077;50.298;18.996;2023-06-22T11:41:45;13.80;;;9.40;;
77880;SDS011;67077;50.298;18.996;2023-06-22T11:44:12;10.10;;;8.60;;
77880;SDS011;67077;50.298;18.996;2023-06-22T11:46:42;10.80;;;9.30;;
77880;SDS011;67077;50.298;18.996;2023-06-22T11:49:09;11.70;;;9.40;;
77880;SDS011;67077;50.298;18.996;2023-06-22T11:51:36;10.40;;;8.90;;
77880;SDS011;67077;50.298;18.996;2023-06-22T11:54:03;10.30;;;9.20;;
77880;SDS011;67077;50.298;18.996;2023-06-22T11:56:32;10.70;;;8.80;;
77880;SDS011;67077;50.298;18.996;2023-06-22T11:58:59;10.00;;;8.70;;
77880;SDS011;67077;50.298;18.996;2023-06-22T12:01:26;11.80;;;9.60;;
77880;SDS011;67077;50.298;18.996;2023-06-22T12:03:53;10.60;;;9.20;;
77880;SDS011;67077;50.298;18.996;2023-06-22T12:06:20;13.10;;;8.90;;
77880;SDS011;67077;50.298;18.996;2023-06-22T12:08:47;11.20;;;8.70;;
77880;SDS011;67077;50.298;18.996;2023-06-22T12:11:14;12.40;;;9.20;;
77880;SDS011;67077;50.298;18.996;2023-06-22T12:13:41;12.80;;;8.90;;
77880;SDS011;67077;50.298;18.996;2023-06-22T12:16:08;12.10;;;9.40;;
77880;SDS011;67077;50.298;18.996;2023-06-22T12:18:35;12.00;;;8.90;;
77880;SDS011;67077;50.298;18.996;2023-06-22T12:21:01;11.40;;;9.10;;
77880;SDS011;67077;50.298;18.996;2023-06-22T12:23:28;10.80;;;8.80;;
77880;SDS011;67077;50.298;18.996;2023-06-22T12:25:55;10.50;;;8.80;;
77880;SDS011;67077;50.298;18.996;2023-06-22T12:28:21;14.40;;;9.10;;
77880;SDS011;67077;50.298;18.996;2023-06-22T12:30:51;16.20;;;13.40;;
77880;SDS011;67077;50.298;18.996;2023-06-22T12:33:21;12.10;;;9.20;;
77880;SDS011;67077;50.298;18.996;2023-06-22T12:35:47;10.80;;;9.60;;
77880;SDS011;67077;50.298;18.996;2023-06-22T12:38:15;11.30;;;9.30;;
77880;SDS011;67077;50.298;18.996;2023-06-22T12:40:42;14.00;;;9.40;;
77880;SDS011;67077;50.298;18.996;2023-06-22T12:43:09;13.30;;;9.80;;
77880;SDS011;67077;50.298;18.996;2023-06-22T12:45:35;11.20;;;9.00;;
77880;SDS011;67077;50.298;18.996;2023-06-22T12:48:02;12.20;;;9.50;;
77880;SDS011;67077;50.298;18.996;2023-06-22T12:50:29;12.90;;;9.80;;
77880;SDS011;67077;50.298;18.996;2023-06-22T12:52:56;15.10;;;9.90;;
77880;SDS011;67077;50.298;18.996;2023-06-22T12:55:25;12.10;;;9.40;;
77880;SDS011;67077;50.298;18.996;2023-06-22T13:00:31;16.10;;;10.40;;
77880;SDS011;67077;50.298;18.996;2023-06-22T13:04:01;13.80;;;9.50;;
77880;SDS011;67077;50.298;18.996;2023-06-22T13:06:36;13.00;;;10.10;;
77880;SDS011;67077;50.298;18.996;2023-06-22T13:09:03;14.60;;;9.40;;
77880;SDS011;67077;50.298;18.996;2023-06-22T13:11:32;15.00;;;10.80;;
77880;SDS011;67077;50.298;18.996;2023-06-22T13:13:59;16.10;;;10.10;;
77880;SDS011;67077;50.298;18.996;2023-06-22T13:16:27;13.80;;;10.30;;
77880;SDS011;67077;50.298;18.996;2023-06-22T13:18:56;16.20;;;11.00;;
77880;SDS011;67077;50.298;18.996;2023-06-22T13:21:26;14.00;;;10.40;;
77880;SDS011;67077;50.298;18.996;2023-06-22T13:23:53;12.60;;;10.00;;
77880;SDS011;67077;50.298;18.996;2023-06-22T13:26:22;16.30;;;10.30;;
77880;SDS011;67077;50.298;18.996;2023-06-22T13:28:50;12.70;;;10.10;;
77880;SDS011;67077;50.298;18.996;2023-06-22T13:31:37;13.20;;;9.60;;
77880;SDS011;67077;50.298;18.996;2023-06-22T13:34:06;13.60;;;10.20;;
77880;SDS011;67077;50.298;18.996;2023-06-22T13:36:34;13.80;;;9.90;;
77880;SDS011;67077;50.298;18.996;2023-06-22T13:39:12;10.80;;;9.30;;
77880;SDS011;67077;50.298;18.996;2023-06-22T13:42:03;11.20;;;9.10;;
77880;SDS011;67077;50.298;18.996;2023-06-22T13:44:30;15.60;;;9.80;;
77880;SDS011;67077;50.298;18.996;2023-06-22T13:46:57;14.20;;;9.70;;
77880;SDS011;67077;50.298;18.996;2023-06-22T13:49:26;12.30;;;10.00;;
77880;SDS011;67077;50.298;18.996;2023-06-22T13:51:54;12.50;;;10.20;;
77880;SDS011;67077;50.298;18.996;2023-06-22T13:54:21;13.70;;;10.00;;
77880;SDS011;67077;50.298;18.996;2023-06-22T13:56:48;14.20;;;9.20;;
77880;SDS011;67077;50.298;18.996;2023-06-22T13:59:15;12.20;;;9.00;;
77880;SDS011;67077;50.298;18.996;2023-06-22T14:01:42;12.90;;;10.10;;
77880;SDS011;67077;50.298;18.996;2023-06-22T14:04:09;14.20;;;9.80;;
77880;SDS011;67077;50.298;18.996;2023-06-22T14:06:37;10.40;;;8.80;;
77880;SDS011;67077;50.298;18.996;2023-06-22T14:09:04;9.60;;;8.20;;
77880;SDS011;67077;50.298;18.996;2023-06-22T14:11:32;12.10;;;9.20;;
77880;SDS011;67077;50.298;18.996;2023-06-22T14:13:58;10.20;;;8.10;;
77880;SDS011;67077;50.298;18.996;2023-06-22T14:16:25;12.00;;;9.30;;
77880;SDS011;67077;50.298;18.996;2023-06-22T14:18:54;13.80;;;9.10;;
77880;SDS011;67077;50.298;18.996;2023-06-22T14:21:21;13.90;;;8.60;;
77880;SDS011;67077;50.298;18.996;2023-06-22T14:23:47;13.80;;;9.80;;
77880;SDS011;67077;50.298;18.996;2023-06-22T14:26:15;12.30;;;9.40;;
77880;SDS011;67077;50.298;18.996;2023-06-22T14:28:45;13.70;;;8.80;;
77880;SDS011;67077;50.298;18.996;2023-06-22T14:31:14;13.40;;;8.70;;
77880;SDS011;67077;50.298;18.996;2023-06-22T14:33:43;13.50;;;9.30;;
77880;SDS011;67077;50.298;18.996;2023-06-22T14:36:12;14.20;;;9.10;;
77880;SDS011;67077;50.298;18.996;2023-06-22T14:38:38;10.90;;;8.30;;
77880;SDS011;67077;50.298;18.996;2023-06-22T14:41:05;11.10;;;9.30;;
77880;SDS011;67077;50.298;18.996;2023-06-22T14:43:32;12.00;;;9.40;;
77880;SDS011;67077;50.298;18.996;2023-06-22T14:45:58;10.20;;;8.90;;
77880;SDS011;67077;50.298;18.996;2023-06-22T14:48:25;13.90;;;9.20;;